sensor_id;sensor_type;location;lat;lon;timestamp;pressure;altitude;pressure_sealevel;temperature;humidity
18749;BME280;9503;53.560;10.246;2023-04-21T00:01:55;101442.28;;;11.96;81.32
18749;BME280;9503;53.560;10.246;2023-04-21T00:04:23;101433.63;;;12.26;80.55
18749;BME280;9503;53.560;10.246;2023-04-21T00:06:51;101438.28;;;12.33;80.42
18749;BME280;9503;53.560;10.246;2023-04-21T00:09:18;101433.41;;;12.05;80.66
18749;BME280;9503;53.560;10.246;2023-04-21T00:11:45;101437.66;;;12.37;79.17
18749;BME280;9503;53.560;10.246;2023-04-21T00:14:12;101436.78;;;12.37;79.74
18749;BME280;9503;53.560;10.246;2023-04-21T00:16:38;101436.88;;;12.22;79.25
18749;BME280;9503;53.560;10.246;2023-04-21T00:19:05;101429.63;;;12.31;79.76
18749;BME280;9503;53.560;10.246;2023-04-21T00:21:32;101426.34;;;12.50;78.53
18749;BME280;9503;53.560;10.246;2023-04-21T00:24:00;101426.31;;;12.17;79.53
18749;BME280;9503;53.560;10.246;2023-04-21T00:26:27;101428.34;;;12.39;78.63
18749;BME280;9503;53.560;10.246;2023-04-21T00:28:57;101425.16;;;12.27;78.97
18749;BME280;9503;53.560;10.246;2023-04-21T00:31:24;101425.50;;;12.18;79.83
18749;BME280;9503;53.560;10.246;2023-04-21T00:33:50;101419.34;;;11.99;79.94
18749;BME280;9503;53.560;10.246;2023-04-21T00:36:18;101426.41;;;12.03;80.63
18749;BME280;9503;53.560;10.246;2023-04-21T00:38:44;101424.56;;;12.16;79.68
18749;BME280;9503;53.560;10.246;2023-04-21T00:41:12;101424.06;;;12.40;78.23
18749;BME280;9503;53.560;10.246;2023-04-21T00:44:00;101417.56;;;12.47;78.37
18749;BME280;9503;53.560;10.246;2023-04-21T00:46:27;101418.88;;;12.22;78.88
18749;BME280;9503;53.560;10.246;2023-04-21T00:48:54;101418.84;;;11.75;80.81
18749;BME280;9503;53.560;10.246;2023-04-21T00:51:20;101420.03;;;11.96;80.34
18749;BME280;9503;53.560;10.246;2023-04-21T00:53:48;101423.88;;;11.88;80.89
18749;BME280;9503;53.560;10.246;2023-04-21T00:56:17;101413.72;;;12.06;79.64
18749;BME280;9503;53.560;10.246;2023-04-21T00:58:44;101412.50;;;12.15;79.14
18749;BME280;9503;53.560;10.246;2023-04-21T01:01:12;101410.97;;;11.86;80.15
18749;BME280;9503;53.560;10.246;2023-04-21T01:03:39;101421.97;;;12.33;79.28
18749;BME280;9503;53.560;10.246;2023-04-21T01:06:06;101415.91;;;12.14;78.90
18749;BME280;9503;53.560;10.246;2023-04-21T01:08:34;101418.13;;;12.25;79.25
18749;BME280;9503;53.560;10.246;2023-04-21T01:11:08;101411.88;;;12.20;78.65
18749;BME280;9503;53.560;10.246;2023-04-21T01:13:36;101407.38;;;12.15;79.36
18749;BME280;9503;53.560;10.246;2023-04-21T01:16:03;101414.28;;;12.16;79.71
18749;BME280;9503;53.560;10.246;2023-04-21T01:18:30;101411.56;;;11.97;79.34
18749;BME280;9503;53.560;10.246;2023-04-21T01:20:57;101413.94;;;11.94;79.66
18749;BME280;9503;53.560;10.246;2023-04-21T01:23:25;101407.22;;;12.12;79.35
18749;BME280;9503;53.560;10.246;2023-04-21T01:25:52;101413.31;;;12.14;79.60
18749;BME280;9503;53.560;10.246;2023-04-21T01:28:20;101406.72;;;12.03;79.34
18749;BME280;9503;53.560;10.246;2023-04-21T01:30:47;101407.13;;;12.11;79.28
18749;BME280;9503;53.560;10.246;2023-04-21T01:33:14;101413.06;;;11.94;80.14
18749;BME280;9503;53.560;10.246;2023-04-21T01:35:41;101403.84;;;12.13;79.67
18749;BME280;9503;53.560;10.246;2023-04-21T01:38:07;101399.81;;;12.02;79.71
18749;BME280;9503;53.560;10.246;2023-04-21T01:40:36;101400.13;;;11.92;79.18
18749;BME280;9503;53.560;10.246;2023-04-21T01:43:02;101387.41;;;11.79;80.26
18749;BME280;9503;53.560;10.246;2023-04-21T01:45:30;101394.59;;;11.84;80.44
18749;BME280;9503;53.560;10.246;2023-04-21T01:47:56;101397.66;;;12.10;79.20
18749;BME280;9503;53.560;10.246;2023-04-21T01:50:23;101391.56;;;11.77;80.54
18749;BME280;9503;53.560;10.246;2023-04-21T01:52:50;101393.16;;;12.06;79.89
18749;BME280;9503;53.560;10.246;2023-04-21T01:55:16;101395.22;;;11.97;79.29
18749;BME280;9503;53.560;10.246;2023-04-21T01:57:44;101395.84;;;11.76;80.13
18749;BME280;9503;53.560;10.246;2023-04-21T02:00:12;101388.72;;;12.03;79.55
18749;BME280;9503;53.560;10.246;2023-04-21T02:02:38;101388.72;;;12.03;79.61
18749;BME280;9503;53.560;10.246;2023-04-21T02:05:06;101387.44;;;12.11;78.59
18749;BME280;9503;53.560;10.246;2023-04-21T02:07:32;101385.91;;;11.68;80.72
18749;BME280;9503;53.560;10.246;2023-04-21T02:09:59;101382.69;;;12.19;78.65
18749;BME280;9503;53.560;10.246;2023-04-21T02:12:26;101373.25;;;11.71;80.23
18749;BME280;9503;53.560;10.246;2023-04-21T02:14:54;101379.28;;;11.71;80.33
18749;BME280;9503;53.560;10.246;2023-04-21T02:17:20;101379.25;;;12.02;80.18
18749;BME280;9503;53.560;10.246;2023-04-21T02:19:47;101383.22;;;12.12;79.78
18749;BME280;9503;53.560;10.246;2023-04-21T02:22:14;101370.09;;;11.60;81.03
18749;BME280;9503;53.560;10.246;2023-04-21T02:24:40;101376.75;;;11.87;80.40
18749;BME280;9503;53.560;10.246;2023-04-21T02:27:07;101384.16;;;11.98;79.72
18749;BME280;9503;53.560;10.246;2023-04-21T02:29:33;101378.22;;;11.68;80.76
18749;BME280;9503;53.560;10.246;2023-04-21T02:32:01;101381.91;;;11.56;81.50
18749;BME280;9503;53.560;10.246;2023-04-21T02:34:28;101377.81;;;12.07;80.54
18749;BME280;9503;53.560;10.246;2023-04-21T02:36:54;101379.09;;;11.83;80.70
18749;BME280;9503;53.560;10.246;2023-04-21T02:39:21;101380.38;;;12.07;79.08
18749;BME280;9503;53.560;10.246;2023-04-21T02:41:47;101375.25;;;11.91;80.00
18749;BME280;9503;53.560;10.246;2023-04-21T02:44:14;101373.53;;;11.75;80.72
18749;BME280;9503;53.560;10.246;2023-04-21T02:46:41;101373.81;;;12.12;79.04
18749;BME280;9503;53.560;10.246;2023-04-21T02:49:09;101376.59;;;12.17;78.35
18749;BME280;9503;53.560;10.246;2023-04-21T02:51:36;101374.91;;;12.17;78.55
18749;BME280;9503;53.560;10.246;2023-04-21T02:54:03;101372.75;;;12.09;78.54
18749;BME280;9503;53.560;10.246;2023-04-21T02:56:29;101367.78;;;12.12;78.02
18749;BME280;9503;53.560;10.246;2023-04-21T02:58:56;101367.94;;;11.68;79.93
18749;BME280;9503;53.560;10.246;2023-04-21T03:01:23;101373.47;;;12.06;78.55
18749;BME280;9503;53.560;10.246;2023-04-21T03:03:49;101364.81;;;12.21;77.87
18749;BME280;9503;53.560;10.246;2023-04-21T03:06:17;101366.59;;;12.05;78.12
18749;BME280;9503;53.560;10.246;2023-04-21T03:08:44;101372.44;;;11.86;79.62
18749;BME280;9503;53.560;10.246;2023-04-21T03:11:11;101366.16;;;12.14;79.07
18749;BME280;9503;53.560;10.246;2023-04-21T03:13:37;101368.16;;;12.36;77.89
18749;BME280;9503;53.560;10.246;2023-04-21T03:16:05;101358.06;;;12.06;78.86
18749;BME280;9503;53.560;10.246;2023-04-21T03:18:33;101366.88;;;12.28;78.38
18749;BME280;9503;53.560;10.246;2023-04-21T03:21:00;101367.78;;;12.28;77.82
18749;BME280;9503;53.560;10.246;2023-04-21T03:23:28;101356.19;;;12.04;78.28
18749;BME280;9503;53.560;10.246;2023-04-21T03:25:54;101363.66;;;12.32;77.87
18749;BME280;9503;53.560;10.246;2023-04-21T03:28:21;101354.91;;;11.96;78.62
18749;BME280;9503;53.560;10.246;2023-04-21T03:30:47;101354.28;;;11.83;78.93
18749;BME280;9503;53.560;10.246;2023-04-21T03:33:14;101365.84;;;11.92;78.88
18749;BME280;9503;53.560;10.246;2023-04-21T03:35:41;101358.22;;;12.09;78.75
18749;BME280;9503;53.560;10.246;2023-04-21T03:38:07;101359.81;;;12.24;77.33
18749;BME280;9503;53.560;10.246;2023-04-21T03:40:38;101359.72;;;12.38;76.93
18749;BME280;9503;53.560;10.246;2023-04-21T03:43:05;101358.63;;;12.01;77.87
18749;BME280;9503;53.560;10.246;2023-04-21T03:45:33;101360.75;;;12.26;76.91
18749;BME280;9503;53.560;10.246;2023-04-21T03:48:00;101357.75;;;12.51;76.02
18749;BME280;9503;53.560;10.246;2023-04-21T03:50:27;101363.88;;;12.53;76.41
18749;BME280;9503;53.560;10.246;2023-04-21T03:52:54;101364.97;;;12.07;77.19
18749;BME280;9503;53.560;10.246;2023-04-21T03:55:21;101368.47;;;12.42;76.32
18749;BME280;9503;53.560;10.246;2023-04-21T03:57:49;101363.97;;;12.38;76.28
18749;BME280;9503;53.560;10.246;2023-04-21T04:00:15;101357.41;;;12.27;76.77
18749;BME280;9503;53.560;10.246;2023-04-21T04:02:42;101354.97;;;12.30;77.53
18749;BME280;9503;53.560;10.246;2023-04-21T04:05:09;101361.31;;;12.70;75.63
18749;BME280;9503;53.560;10.246;2023-04-21T04:07:35;101358.41;;;12.81;74.80
18749;BME280;9503;53.560;10.246;2023-04-21T04:10:02;101355.56;;;12.58;75.36
18749;BME280;9503;53.560;10.246;2023-04-21T04:12:29;101354.75;;;12.41;75.41
18749;BME280;9503;53.560;10.246;2023-04-21T04:14:57;101352.72;;;12.36;76.04
18749;BME280;9503;53.560;10.246;2023-04-21T04:17:23;101352.94;;;12.40;75.46
18749;BME280;9503;53.560;10.246;2023-04-21T04:19:50;101350.91;;;12.17;76.49
18749;BME280;9503;53.560;10.246;2023-04-21T04:22:17;101344.00;;;12.00;77.23
18749;BME280;9503;53.560;10.246;2023-04-21T04:24:43;101350.19;;;12.20;77.42
18749;BME280;9503;53.560;10.246;2023-04-21T04:27:10;101347.66;;;12.37;75.70
18749;BME280;9503;53.560;10.246;2023-04-21T04:29:38;101347.75;;;12.23;76.40
18749;BME280;9503;53.560;10.246;2023-04-21T04:32:06;101349.25;;;12.69;74.91
18749;BME280;9503;53.560;10.246;2023-04-21T04:34:35;101347.81;;;12.75;75.61
18749;BME280;9503;53.560;10.246;2023-04-21T04:37:07;101348.84;;;12.44;75.92
18749;BME280;9503;53.560;10.246;2023-04-21T04:39:35;101350.69;;;12.47;76.38
18749;BME280;9503;53.560;10.246;2023-04-21T04:42:02;101351.94;;;13.07;74.23
18749;BME280;9503;53.560;10.246;2023-04-21T04:44:28;101352.25;;;12.61;74.92
18749;BME280;9503;53.560;10.246;2023-04-21T04:46:56;101348.31;;;12.67;75.43
18749;BME280;9503;53.560;10.246;2023-04-21T04:49:26;101353.06;;;12.60;75.51
18749;BME280;9503;53.560;10.246;2023-04-21T04:51:53;101348.56;;;12.90;75.03
18749;BME280;9503;53.560;10.246;2023-04-21T04:54:20;101351.63;;;12.83;74.28
18749;BME280;9503;53.560;10.246;2023-04-21T04:56:47;101349.28;;;13.05;73.95
18749;BME280;9503;53.560;10.246;2023-04-21T04:59:13;101357.31;;;13.11;73.54
18749;BME280;9503;53.560;10.246;2023-04-21T05:01:40;101352.53;;;13.01;73.53
18749;BME280;9503;53.560;10.246;2023-04-21T05:04:07;101351.72;;;13.02;73.96
18749;BME280;9503;53.560;10.246;2023-04-21T05:06:35;101356.34;;;12.91;73.69
18749;BME280;9503;53.560;10.246;2023-04-21T05:09:02;101351.47;;;13.51;72.80
18749;BME280;9503;53.560;10.246;2023-04-21T05:11:30;101354.50;;;13.07;73.02
18749;BME280;9503;53.560;10.246;2023-04-21T05:13:56;101356.00;;;13.37;72.91
18749;BME280;9503;53.560;10.246;2023-04-21T05:16:23;101354.94;;;12.98;73.53
18749;BME280;9503;53.560;10.246;2023-04-21T05:18:49;101357.63;;;13.35;72.64
18749;BME280;9503;53.560;10.246;2023-04-21T05:21:22;101351.13;;;13.43;72.22
18749;BME280;9503;53.560;10.246;2023-04-21T05:23:50;101352.41;;;13.34;72.60
18749;BME280;9503;53.560;10.246;2023-04-21T05:26:17;101342.50;;;13.43;71.84
18749;BME280;9503;53.560;10.246;2023-04-21T05:28:43;101343.06;;;13.92;71.33
18749;BME280;9503;53.560;10.246;2023-04-21T05:31:10;101348.25;;;13.55;71.88
18749;BME280;9503;53.560;10.246;2023-04-21T05:33:37;101343.28;;;14.37;69.96
18749;BME280;9503;53.560;10.246;2023-04-21T05:36:05;101341.47;;;15.18;67.83
18749;BME280;9503;53.560;10.246;2023-04-21T05:38:32;101347.97;;;15.98;65.03
18749;BME280;9503;53.560;10.246;2023-04-21T05:41:00;101348.84;;;16.72;61.87
18749;BME280;9503;53.560;10.246;2023-04-21T05:43:27;101349.97;;;16.80;60.71
18749;BME280;9503;53.560;10.246;2023-04-21T05:45:54;101359.78;;;17.44;58.82
18749;BME280;9503;53.560;10.246;2023-04-21T05:48:20;101363.19;;;18.98;55.63
18749;BME280;9503;53.560;10.246;2023-04-21T05:50:47;101356.78;;;17.87;56.64
18749;BME280;9503;53.560;10.246;2023-04-21T05:53:14;101361.09;;;17.87;57.33
18749;BME280;9503;53.560;10.246;2023-04-21T05:55:40;101365.69;;;18.29;56.78
18749;BME280;9503;53.560;10.246;2023-04-21T05:58:08;101359.41;;;17.89;56.42
18749;BME280;9503;53.560;10.246;2023-04-21T06:00:35;101360.09;;;19.14;55.44
18749;BME280;9503;53.560;10.246;2023-04-21T06:03:02;101365.44;;;19.99;53.43
18749;BME280;9503;53.560;10.246;2023-04-21T06:05:28;101367.72;;;20.74;51.49
18749;BME280;9503;53.560;10.246;2023-04-21T06:07:55;101366.28;;;20.43;51.22
18749;BME280;9503;53.560;10.246;2023-04-21T06:10:22;101359.81;;;20.23;52.43
18749;BME280;9503;53.560;10.246;2023-04-21T06:12:48;101357.16;;;19.38;53.87
18749;BME280;9503;53.560;10.246;2023-04-21T06:15:16;101355.81;;;19.54;54.20
18749;BME280;9503;53.560;10.246;2023-04-21T06:17:43;101352.81;;;19.37;53.97
18749;BME280;9503;53.560;10.246;2023-04-21T06:20:10;101359.66;;;18.96;54.40
18749;BME280;9503;53.560;10.246;2023-04-21T06:22:37;101357.25;;;18.04;56.28
18749;BME280;9503;53.560;10.246;2023-04-21T06:25:05;101356.13;;;18.28;56.73
18749;BME280;9503;53.560;10.246;2023-04-21T06:27:31;101351.75;;;17.93;57.86
18749;BME280;9503;53.560;10.246;2023-04-21T06:29:58;101350.78;;;17.90;57.38
18749;BME280;9503;53.560;10.246;2023-04-21T06:32:26;101353.81;;;17.47;57.77
18749;BME280;9503;53.560;10.246;2023-04-21T06:34:52;101354.63;;;18.36;56.72
18749;BME280;9503;53.560;10.246;2023-04-21T06:37:19;101354.16;;;18.17;57.07
18749;BME280;9503;53.560;10.246;2023-04-21T06:39:45;101345.47;;;17.85;57.03
18749;BME280;9503;53.560;10.246;2023-04-21T06:42:12;101344.38;;;18.07;57.29
18749;BME280;9503;53.560;10.246;2023-04-21T06:44:39;101336.41;;;19.02;55.04
18749;BME280;9503;53.560;10.246;2023-04-21T06:47:05;101337.47;;;19.48;54.40
18749;BME280;9503;53.560;10.246;2023-04-21T06:49:33;101339.50;;;19.23;55.01
18749;BME280;9503;53.560;10.246;2023-04-21T06:52:01;101341.38;;;19.68;53.43
18749;BME280;9503;53.560;10.246;2023-04-21T06:54:28;101336.06;;;20.06;52.57
18749;BME280;9503;53.560;10.246;2023-04-21T06:56:54;101333.31;;;19.98;53.18
18749;BME280;9503;53.560;10.246;2023-04-21T06:59:21;101339.19;;;19.88;53.70
18749;BME280;9503;53.560;10.246;2023-04-21T07:01:48;101342.03;;;18.84;55.25
18749;BME280;9503;53.560;10.246;2023-04-21T07:04:16;101338.41;;;18.77;55.32
18749;BME280;9503;53.560;10.246;2023-04-21T07:06:44;101335.69;;;19.47;55.00
18749;BME280;9503;53.560;10.246;2023-04-21T07:09:11;101328.41;;;18.94;55.97
18749;BME280;9503;53.560;10.246;2023-04-21T07:11:37;101346.84;;;18.36;57.02
18749;BME280;9503;53.560;10.246;2023-04-21T07:14:04;101324.94;;;17.93;57.33
18749;BME280;9503;53.560;10.246;2023-04-21T07:16:31;101330.66;;;18.44;57.68
18749;BME280;9503;53.560;10.246;2023-04-21T07:18:58;101330.22;;;18.95;57.16
18749;BME280;9503;53.560;10.246;2023-04-21T07:21:25;101324.22;;;18.65;56.08
18749;BME280;9503;53.560;10.246;2023-04-21T07:23:52;101333.63;;;18.60;56.62
18749;BME280;9503;53.560;10.246;2023-04-21T07:26:19;101322.78;;;18.43;56.63
18749;BME280;9503;53.560;10.246;2023-04-21T07:28:46;101326.78;;;18.63;57.62
18749;BME280;9503;53.560;10.246;2023-04-21T07:31:14;101330.84;;;18.20;57.61
18749;BME280;9503;53.560;10.246;2023-04-21T07:33:41;101327.59;;;18.28;57.60
18749;BME280;9503;53.560;10.246;2023-04-21T07:36:08;101320.00;;;18.35;57.49
18749;BME280;9503;53.560;10.246;2023-04-21T07:38:34;101318.13;;;18.64;57.51
18749;BME280;9503;53.560;10.246;2023-04-21T07:41:03;101322.06;;;18.48;57.66
18749;BME280;9503;53.560;10.246;2023-04-21T07:43:30;101323.66;;;18.75;57.33
18749;BME280;9503;53.560;10.246;2023-04-21T07:45:57;101314.66;;;18.29;57.48
18749;BME280;9503;53.560;10.246;2023-04-21T07:48:23;101321.56;;;18.63;57.26
18749;BME280;9503;53.560;10.246;2023-04-21T07:50:50;101308.50;;;18.59;56.82
18749;BME280;9503;53.560;10.246;2023-04-21T07:53:17;101309.16;;;18.85;57.22
18749;BME280;9503;53.560;10.246;2023-04-21T07:55:44;101308.13;;;19.16;55.88
18749;BME280;9503;53.560;10.246;2023-04-21T07:58:12;101316.78;;;19.54;55.25
18749;BME280;9503;53.560;10.246;2023-04-21T08:00:38;101298.69;;;19.19;55.88
18749;BME280;9503;53.560;10.246;2023-04-21T08:03:05;101302.53;;;19.37;55.74
18749;BME280;9503;53.560;10.246;2023-04-21T08:05:32;101311.13;;;19.73;55.30
18749;BME280;9503;53.560;10.246;2023-04-21T08:07:58;101307.84;;;19.43;55.49
18749;BME280;9503;53.560;10.246;2023-04-21T08:10:25;101307.56;;;19.29;55.47
18749;BME280;9503;53.560;10.246;2023-04-21T08:12:51;101300.41;;;19.19;55.48
18749;BME280;9503;53.560;10.246;2023-04-21T08:15:20;101306.63;;;19.65;55.66
18749;BME280;9503;53.560;10.246;2023-04-21T08:17:46;101304.56;;;19.51;55.05
18749;BME280;9503;53.560;10.246;2023-04-21T08:20:13;101308.28;;;19.61;55.13
18749;BME280;9503;53.560;10.246;2023-04-21T08:22:40;101306.28;;;19.51;55.13
18749;BME280;9503;53.560;10.246;2023-04-21T08:25:06;101299.22;;;19.45;55.47
18749;BME280;9503;53.560;10.246;2023-04-21T08:27:36;101295.50;;;19.72;55.41
18749;BME280;9503;53.560;10.246;2023-04-21T08:30:04;101290.72;;;20.43;54.47
18749;BME280;9503;53.560;10.246;2023-04-21T08:32:32;101296.34;;;20.18;53.72
18749;BME280;9503;53.560;10.246;2023-04-21T08:34:59;101289.63;;;20.79;53.02
18749;BME280;9503;53.560;10.246;2023-04-21T08:37:26;101295.19;;;20.02;53.96
18749;BME280;9503;53.560;10.246;2023-04-21T08:39:53;101286.63;;;20.56;53.28
18749;BME280;9503;53.560;10.246;2023-04-21T08:42:20;101288.97;;;20.93;52.29
18749;BME280;9503;53.560;10.246;2023-04-21T08:44:46;101294.19;;;21.59;51.71
18749;BME280;9503;53.560;10.246;2023-04-21T08:47:14;101290.53;;;20.32;53.01
18749;BME280;9503;53.560;10.246;2023-04-21T08:49:42;101289.31;;;20.62;52.37
18749;BME280;9503;53.560;10.246;2023-04-21T08:52:11;101291.41;;;20.83;51.96
18749;BME280;9503;53.560;10.246;2023-04-21T08:54:37;101285.72;;;21.10;52.17
18749;BME280;9503;53.560;10.246;2023-04-21T08:57:04;101292.50;;;21.61;52.05
18749;BME280;9503;53.560;10.246;2023-04-21T08:59:31;101296.19;;;21.79;51.65
18749;BME280;9503;53.560;10.246;2023-04-21T09:02:08;101293.69;;;21.22;51.23
18749;BME280;9503;53.560;10.246;2023-04-21T09:04:37;101292.44;;;21.58;51.58
18749;BME280;9503;53.560;10.246;2023-04-21T09:07:06;101292.72;;;21.79;50.84
18749;BME280;9503;53.560;10.246;2023-04-21T09:09:33;101286.44;;;21.65;51.11
18749;BME280;9503;53.560;10.246;2023-04-21T09:12:16;101296.31;;;21.90;50.93
18749;BME280;9503;53.560;10.246;2023-04-21T09:14:43;101295.13;;;22.44;50.29
18749;BME280;9503;53.560;10.246;2023-04-21T09:17:10;101288.47;;;21.89;50.08
18749;BME280;9503;53.560;10.246;2023-04-21T09:19:36;101291.91;;;21.86;49.56
18749;BME280;9503;53.560;10.246;2023-04-21T09:22:03;101294.41;;;21.75;50.39
18749;BME280;9503;53.560;10.246;2023-04-21T09:24:31;101288.84;;;22.22;50.21
18749;BME280;9503;53.560;10.246;2023-04-21T09:27:01;101288.84;;;22.22;49.42
18749;BME280;9503;53.560;10.246;2023-04-21T09:29:28;101291.59;;;22.36;49.49
18749;BME280;9503;53.560;10.246;2023-04-21T09:31:55;101288.22;;;22.52;50.00
18749;BME280;9503;53.560;10.246;2023-04-21T09:34:23;101291.59;;;22.36;49.12
18749;BME280;9503;53.560;10.246;2023-04-21T09:36:58;101285.84;;;22.83;47.97
18749;BME280;9503;53.560;10.246;2023-04-21T09:39:24;101280.78;;;23.01;48.47
18749;BME280;9503;53.560;10.246;2023-04-21T09:41:53;101289.25;;;22.70;48.87
18749;BME280;9503;53.560;10.246;2023-04-21T09:44:19;101291.53;;;22.31;49.04
18749;BME280;9503;53.560;10.246;2023-04-21T09:46:49;101269.97;;;22.58;48.87
18749;BME280;9503;53.560;10.246;2023-04-21T09:49:16;101277.13;;;22.82;49.04
18749;BME280;9503;53.560;10.246;2023-04-21T09:51:44;101274.50;;;22.79;48.56
18749;BME280;9503;53.560;10.246;2023-04-21T09:54:15;101268.75;;;23.40;47.63
18749;BME280;9503;53.560;10.246;2023-04-21T09:56:42;101266.00;;;23.06;48.73
18749;BME280;9503;53.560;10.246;2023-04-21T09:59:16;101257.53;;;23.62;47.30
18749;BME280;9503;53.560;10.246;2023-04-21T10:01:47;101258.47;;;23.80;47.30
18749;BME280;9503;53.560;10.246;2023-04-21T10:04:16;101260.25;;;24.04;47.04
18749;BME280;9503;53.560;10.246;2023-04-21T10:06:44;101256.75;;;24.06;47.35
18749;BME280;9503;53.560;10.246;2023-04-21T10:09:13;101249.78;;;24.78;47.10
18749;BME280;9503;53.560;10.246;2023-04-21T10:11:41;101248.03;;;24.71;45.79
18749;BME280;9503;53.560;10.246;2023-04-21T10:14:08;101254.03;;;25.28;45.46
18749;BME280;9503;53.560;10.246;2023-04-21T10:16:36;101240.22;;;24.47;46.02
18749;BME280;9503;53.560;10.246;2023-04-21T10:19:22;101259.34;;;25.13;45.38
18749;BME280;9503;53.560;10.246;2023-04-21T10:21:49;101249.78;;;24.52;45.72
18749;BME280;9503;53.560;10.246;2023-04-21T10:24:16;101242.78;;;24.76;44.84
18749;BME280;9503;53.560;10.246;2023-04-21T10:26:43;101240.97;;;25.02;45.39
18749;BME280;9503;53.560;10.246;2023-04-21T10:29:09;101227.91;;;24.78;45.85
18749;BME280;9503;53.560;10.246;2023-04-21T10:31:49;101233.19;;;24.60;44.99
18749;BME280;9503;53.560;10.246;2023-04-21T10:34:21;101227.00;;;24.93;44.99
18749;BME280;9503;53.560;10.246;2023-04-21T10:37:11;101226.09;;;25.15;44.55
18749;BME280;9503;53.560;10.246;2023-04-21T10:39:58;101217.41;;;24.83;45.10
18749;BME280;9503;53.560;10.246;2023-04-21T10:42:29;101219.16;;;24.85;45.29
18749;BME280;9503;53.560;10.246;2023-04-21T10:45:09;101215.25;;;25.81;44.33
18749;BME280;9503;53.560;10.246;2023-04-21T10:47:40;101212.16;;;24.73;45.03
18749;BME280;9503;53.560;10.246;2023-04-21T10:50:13;101211.25;;;24.94;44.64
18749;BME280;9503;53.560;10.246;2023-04-21T10:52:43;101198.16;;;24.82;44.84
18749;BME280;9503;53.560;10.246;2023-04-21T10:55:11;101206.66;;;25.53;42.93
18749;BME280;9503;53.560;10.246;2023-04-21T10:57:42;101204.91;;;25.50;44.47
18749;BME280;9503;53.560;10.246;2023-04-21T11:00:10;101192.19;;;26.18;43.48
18749;BME280;9503;53.560;10.246;2023-04-21T11:02:41;101188.66;;;26.22;43.23
18749;BME280;9503;53.560;10.246;2023-04-21T11:05:08;101201.44;;;25.45;43.46
18749;BME280;9503;53.560;10.246;2023-04-21T11:07:35;101197.25;;;25.00;43.58
18749;BME280;9503;53.560;10.246;2023-04-21T11:10:03;101187.28;;;25.68;43.40
18749;BME280;9503;53.560;10.246;2023-04-21T11:12:31;101189.91;;;25.71;42.30
18749;BME280;9503;53.560;10.246;2023-04-21T11:15:01;101174.13;;;25.75;43.25
18749;BME280;9503;53.560;10.246;2023-04-21T11:17:28;101180.91;;;26.05;43.60
18749;BME280;9503;53.560;10.246;2023-04-21T11:19:56;101167.69;;;26.13;42.33
18749;BME280;9503;53.560;10.246;2023-04-21T11:22:24;101174.47;;;26.44;42.50
18749;BME280;9503;53.560;10.246;2023-04-21T11:24:53;101164.19;;;26.12;42.48
18749;BME280;9503;53.560;10.246;2023-04-21T11:27:20;101164.41;;;25.88;42.23
18749;BME280;9503;53.560;10.246;2023-04-21T11:29:48;101158.31;;;25.83;43.32
18749;BME280;9503;53.560;10.246;2023-04-21T11:32:16;101157.25;;;26.05;42.49
18749;BME280;9503;53.560;10.246;2023-04-21T11:34:43;101148.09;;;26.52;41.50
18749;BME280;9503;53.560;10.246;2023-04-21T11:37:15;101149.09;;;27.14;41.86
18749;BME280;9503;53.560;10.246;2023-04-21T11:39:42;101142.94;;;27.15;41.32
18749;BME280;9503;53.560;10.246;2023-04-21T11:42:09;101147.31;;;26.41;42.10
18749;BME280;9503;53.560;10.246;2023-04-21T11:44:38;101139.38;;;26.46;41.00
18749;BME280;9503;53.560;10.246;2023-04-21T11:47:12;101139.41;;;26.42;41.38
18749;BME280;9503;53.560;10.246;2023-04-21T11:49:50;101135.13;;;26.31;40.11
18749;BME280;9503;53.560;10.246;2023-04-21T11:52:24;101128.25;;;26.16;41.29
18749;BME280;9503;53.560;10.246;2023-04-21T11:54:56;101123.31;;;25.79;41.15
18749;BME280;9503;53.560;10.246;2023-04-21T11:57:24;101131.81;;;26.92;40.27
18749;BME280;9503;53.560;10.246;2023-04-21T11:59:51;101123.53;;;26.52;39.99
18749;BME280;9503;53.560;10.246;2023-04-21T12:02:22;101120.84;;;27.86;39.41
18749;BME280;9503;53.560;10.246;2023-04-21T12:04:57;101108.22;;;28.03;39.06
18749;BME280;9503;53.560;10.246;2023-04-21T12:07:25;101113.59;;;27.97;38.84
18749;BME280;9503;53.560;10.246;2023-04-21T12:09:52;101107.06;;;27.65;38.87
18749;BME280;9503;53.560;10.246;2023-04-21T12:12:21;101112.94;;;27.27;39.55
18749;BME280;9503;53.560;10.246;2023-04-21T12:14:48;101098.22;;;27.12;38.81
18749;BME280;9503;53.560;10.246;2023-04-21T12:17:16;101096.81;;;28.49;38.04
18749;BME280;9503;53.560;10.246;2023-04-21T12:19:42;101093.75;;;27.76;37.12
18749;BME280;9503;53.560;10.246;2023-04-21T12:22:10;101095.81;;;27.56;36.66
18749;BME280;9503;53.560;10.246;2023-04-21T12:24:39;101101.66;;;27.77;36.55
18749;BME280;9503;53.560;10.246;2023-04-21T12:27:06;101068.09;;;27.33;36.89
18749;BME280;9503;53.560;10.246;2023-04-21T12:29:33;101094.97;;;27.55;36.84
18749;BME280;9503;53.560;10.246;2023-04-21T12:32:02;101083.81;;;27.36;36.79
18749;BME280;9503;53.560;10.246;2023-04-21T12:34:28;101088.03;;;27.46;37.64
18749;BME280;9503;53.560;10.246;2023-04-21T12:36:55;101082.72;;;27.51;36.99
18749;BME280;9503;53.560;10.246;2023-04-21T12:39:21;101074.63;;;28.13;37.18
18749;BME280;9503;53.560;10.246;2023-04-21T12:41:50;101074.50;;;29.44;35.92
18749;BME280;9503;53.560;10.246;2023-04-21T12:44:16;101077.13;;;28.22;36.20
18749;BME280;9503;53.560;10.246;2023-04-21T12:46:43;101078.66;;;28.33;36.35
18749;BME280;9503;53.560;10.246;2023-04-21T12:49:09;101076.00;;;28.35;36.64
18749;BME280;9503;53.560;10.246;2023-04-21T12:51:36;101066.25;;;27.91;36.86
18749;BME280;9503;53.560;10.246;2023-04-21T12:54:03;101065.47;;;28.33;36.88